CCWO2: Washita River, nr Cordell 9E

Data processed at Thu May 23 2019 23:50


All information presented herein is the property of the government of the United States of America and may be revised or deleted at any time without prior notice.
Dissemination of this information without the expressed written consent of the Public Affairs Office, Tulsa District U.S. Army Corps of Engineers is strictly prohibited.
These data are gathered electronically and, as presented, have not undergone any form of quality control. These data are not guaranteed to be valid or correct.
Go to home page.
Go to station list.
Go to home page.

Upstream stations:

Downstream station:
Previous Day
Next Day
Current Day
    
SHEF ID:       CCWO2     Washita River, nr Cordell 9E
STATION TYPE:  
Regulating: Stage =    21.00, Flow =     4072

               PRECIP     STAGE  RIV-FLOW   VOLTAGE
                   in        ft       cfs      volt
              Ccp-Rev   Ccp-Rev   Ccp-Rev   Ccp-Rev
(US/Central)
05/23 00:00      0.18     18.67      3315     13.20
05/23 01:00      0.59     17.82      3038     13.20
05/23 02:00      0.00     16.93      2749     13.20
05/23 03:00      0.00     16.69      2671     13.10
05/23 04:00      0.00     16.61      2645     13.10
05/23 05:00      0.00     16.54      2622     13.10
05/23 06:00      0.00     16.51      2612     13.10
05/23 07:00      0.00     16.43      2586     13.20
05/23 08:00      0.00     16.40      2577     13.60
05/23 09:00      0.00     16.65      2658     13.90
05/23 10:00      0.00     17.06      2791     14.20
05/23 11:00      0.00     17.77      3022     14.10
05/23 12:00      0.00     18.21      3165     13.70
05/23 13:00      0.00     18.35      3211     13.90
05/23 14:00      0.00     18.11      3133     13.70
05/23 15:00      0.00     17.90      3064     14.10
05/23 16:00      0.00     18.13      3139     14.10
05/23 17:00      0.00     18.40      3227     14.00
05/23 18:00      0.00     17.78      3025     14.00
05/23 19:00      0.00     17.50      2934     13.60
05/23 20:00      0.00     17.24      2850     13.20
05/23 21:00      0.00     17.35      2886     13.20
05/23 22:00      0.00     17.06      2791     13.20
05/23 23:00      0.00     16.80      2707     13.20